createdAt,value
2023-02-11T00:01:38.653Z,101717.58
2023-02-11T00:04:07.646Z,101712.96
2023-02-11T00:06:36.750Z,101711.67
2023-02-11T00:09:08.772Z,101705.51
2023-02-11T00:11:38.223Z,101700.48
2023-02-11T00:14:08.526Z,101691.56
2023-02-11T00:16:37.209Z,101680.77
2023-02-11T00:19:06.866Z,101678.02
2023-02-11T00:21:37.969Z,101683.90
2023-02-11T00:24:07.165Z,101681.26
2023-02-11T00:26:35.961Z,101672.52
2023-02-11T00:29:04.845Z,101670.66
2023-02-11T00:31:36.020Z,101672.85
2023-02-11T00:34:07.246Z,101673.02
2023-02-11T00:36:35.845Z,101676.76
2023-02-11T00:39:05.161Z,101675.45
2023-02-11T00:41:36.052Z,101668.06
2023-02-11T00:44:05.066Z,101664.73
2023-02-11T00:46:34.884Z,101663.57
2023-02-11T00:49:03.569Z,101660.41
2023-02-11T00:51:33.565Z,101664.14
2023-02-11T00:54:05.427Z,101664.84
2023-02-11T00:56:34.943Z,101663.13
2023-02-11T00:59:03.534Z,101659.61
2023-02-11T01:01:32.264Z,101662.48
2023-02-11T01:04:01.609Z,101663.51
2023-02-11T01:06:30.127Z,101663.52
2023-02-11T01:08:59.895Z,101649.09
2023-02-11T01:11:28.582Z,101636.30
2023-02-11T01:13:57.268Z,101633.62
2023-02-11T01:16:26.175Z,101628.75
2023-02-11T01:18:55.464Z,101632.98
2023-02-11T01:21:23.843Z,101625.48
2023-02-11T01:23:53.357Z,101627.89
2023-02-11T01:26:22.343Z,101632.48
2023-02-11T01:28:51.857Z,101634.16
2023-02-11T01:31:20.360Z,101638.18
2023-02-11T01:33:49.848Z,101640.02
2023-02-11T01:36:18.434Z,101647.89
2023-02-11T01:38:47.001Z,101636.73
2023-02-11T01:41:16.130Z,101631.16
2023-02-11T01:43:47.137Z,101637.02
2023-02-11T01:46:33.749Z,101638.36
2023-02-11T01:49:16.943Z,101637.46
2023-02-11T01:51:52.572Z,101631.05
2023-02-11T01:54:41.790Z,101632.04
2023-02-11T01:57:23.319Z,101635.60
2023-02-11T02:00:14.181Z,101631.55
2023-02-11T02:02:47.112Z,101623.61
2023-02-11T02:05:30.517Z,101629.70
2023-02-11T02:08:18.539Z,101632.25
2023-02-11T02:10:53.547Z,101632.46
2023-02-11T02:13:23.483Z,101635.88
2023-02-11T02:15:54.519Z,101639.09
2023-02-11T02:19:04.683Z,101631.90
2023-02-11T02:21:57.974Z,101632.94
2023-02-11T02:24:26.413Z,101636.34
2023-02-11T02:27:00.813Z,101637.73
2023-02-11T02:29:51.368Z,101644.66
2023-02-11T02:32:38.561Z,101643.22
2023-02-11T02:35:30.507Z,101636.73
2023-02-11T02:38:07.108Z,101638.64
2023-02-11T02:40:50.962Z,101636.15
2023-02-11T02:43:19.484Z,101638.72
2023-02-11T02:45:48.475Z,101638.59
2023-02-11T02:48:31.127Z,101644.69
2023-02-11T02:51:21.132Z,101649.77
2023-02-11T02:54:04.310Z,101645.92
2023-02-11T02:56:44.685Z,101648.30
2023-02-11T02:59:42.349Z,101649.35
2023-02-11T03:02:27.503Z,101645.71
2023-02-11T03:05:06.809Z,101646.26
2023-02-11T03:07:55.792Z,101646.63
2023-02-11T03:10:30.763Z,101640.43
2023-02-11T03:12:59.214Z,101636.45
2023-02-11T03:15:29.477Z,101638.66
2023-02-11T03:17:59.519Z,101634.29
2023-02-11T03:20:28.309Z,101634.15
2023-02-11T03:23:24.778Z,101634.84
2023-02-11T03:25:58.377Z,101634.66
2023-02-11T03:28:39.561Z,101633.46
2023-02-11T03:31:31.049Z,101628.25
2023-02-11T03:34:09.600Z,101627.55
2023-02-11T03:36:47.307Z,101623.77
2023-02-11T03:39:18.355Z,101623.41
2023-02-11T03:41:47.970Z,101623.52
2023-02-11T03:44:16.471Z,101617.77
2023-02-11T03:46:49.335Z,101612.01
2023-02-11T03:49:20.168Z,101610.66
2023-02-11T03:51:49.454Z,101612.15
2023-02-11T03:54:21.293Z,101607.61
2023-02-11T03:56:55.552Z,101602.39
2023-02-11T03:59:24.212Z,101602.75
2023-02-11T04:01:54.231Z,101607.65
2023-02-11T04:04:23.221Z,101604.14
2023-02-11T04:06:51.910Z,101606.86
2023-02-11T04:09:22.948Z,101605.02
2023-02-11T04:11:54.503Z,101600.48
2023-02-11T04:14:22.879Z,101594.12
2023-02-11T04:16:51.572Z,101582.36
2023-02-11T04:19:20.160Z,101578.84
2023-02-11T04:21:48.742Z,101579.84
2023-02-11T04:24:17.849Z,101578.34
2023-02-11T04:26:46.326Z,101585.25
2023-02-11T04:29:14.815Z,101589.29
2023-02-11T04:31:43.718Z,101577.36
2023-02-11T04:34:12.167Z,101582.06
2023-02-11T04:36:40.689Z,101579.55
2023-02-11T04:39:09.159Z,101584.59
2023-02-11T04:41:38.633Z,101586.45
2023-02-11T04:44:07.561Z,101580.73
2023-02-11T04:46:36.745Z,101570.30
2023-02-11T04:49:06.317Z,101566.40
2023-02-11T04:51:35.664Z,101574.10
2023-02-11T04:54:05.135Z,101578.60
2023-02-11T04:56:33.721Z,101578.56
2023-02-11T04:59:02.369Z,101585.75
2023-02-11T05:01:31.180Z,101586.55
2023-02-11T05:04:00.039Z,101590.35
2023-02-11T05:06:28.584Z,101590.43
2023-02-11T05:08:57.461Z,101594.67
2023-02-11T05:11:26.171Z,101594.87
2023-02-11T05:13:54.981Z,101597.88
2023-02-11T05:16:24.363Z,101601.54
2023-02-11T05:18:55.812Z,101605.31
2023-02-11T05:21:24.162Z,101603.98
2023-02-11T05:23:52.833Z,101593.02
2023-02-11T05:26:21.651Z,101592.09
2023-02-11T05:28:50.345Z,101590.81
2023-02-11T05:31:18.893Z,101597.26
2023-02-11T05:33:47.513Z,101594.63
2023-02-11T05:36:17.012Z,101594.13
2023-02-11T05:38:45.404Z,101589.66
2023-02-11T05:41:14.879Z,101589.08
2023-02-11T05:43:43.298Z,101595.33
2023-02-11T05:46:11.950Z,101596.17
2023-02-11T05:48:40.787Z,101591.13
2023-02-11T05:51:09.320Z,101586.93
2023-02-11T05:53:38.172Z,101580.94
2023-02-11T05:56:07.202Z,101583.40
2023-02-11T05:58:35.686Z,101582.86
2023-02-11T06:01:05.086Z,101572.98
2023-02-11T06:03:35.520Z,101564.98
2023-02-11T06:06:04.514Z,101558.11
2023-02-11T06:08:32.893Z,101550.13
2023-02-11T06:11:01.600Z,101547.11
2023-02-11T06:13:34.383Z,101546.59
2023-02-11T06:16:03.780Z,101545.82
2023-02-11T06:18:33.872Z,101551.38
2023-02-11T06:21:07.444Z,101554.48
2023-02-11T06:23:36.474Z,101556.96
2023-02-11T06:26:07.818Z,101554.70
2023-02-11T06:28:36.397Z,101555.00
2023-02-11T06:31:06.834Z,101548.27
2023-02-11T06:33:36.080Z,101543.89
2023-02-11T06:36:05.463Z,101541.52
2023-02-11T06:38:34.341Z,101538.52
2023-02-11T06:41:02.778Z,101541.67
2023-02-11T06:43:31.598Z,101532.38
2023-02-11T06:46:00.186Z,101530.50
2023-02-11T06:48:28.775Z,101531.77
2023-02-11T06:50:57.364Z,101533.91
2023-02-11T06:53:26.061Z,101531.59
2023-02-11T06:55:54.720Z,101531.23
2023-02-11T06:58:23.654Z,101528.70
2023-02-11T07:00:52.610Z,101523.11
2023-02-11T07:03:21.413Z,101519.48
2023-02-11T07:05:50.223Z,101514.90
2023-02-11T07:08:19.064Z,101513.59
2023-02-11T07:10:47.554Z,101509.80
2023-02-11T07:13:16.134Z,101499.80
2023-02-11T07:15:44.879Z,101500.92
2023-02-11T07:18:14.893Z,101493.73
2023-02-11T07:20:43.536Z,101488.23
2023-02-11T07:23:12.234Z,101482.67
2023-02-11T07:25:40.796Z,101478.22
2023-02-11T07:28:10.829Z,101480.33
2023-02-11T07:30:39.492Z,101478.36
2023-02-11T07:33:08.058Z,101476.77
2023-02-11T07:35:38.579Z,101472.89
2023-02-11T07:38:08.154Z,101472.70
2023-02-11T07:40:36.898Z,101468.80
2023-02-11T07:43:05.276Z,101469.33
2023-02-11T07:45:39.299Z,101465.85
2023-02-11T07:48:07.665Z,101465.55
2023-02-11T07:50:36.152Z,101465.02
2023-02-11T07:53:04.679Z,101461.68
2023-02-11T07:55:33.928Z,101463.52
2023-02-11T07:58:02.515Z,101461.63
2023-02-11T08:00:31.505Z,101457.75
2023-02-11T08:03:00.124Z,101455.15
2023-02-11T08:05:28.638Z,101452.00
2023-02-11T08:07:57.358Z,101450.64
2023-02-11T08:10:26.959Z,101438.75
2023-02-11T08:12:56.168Z,101436.73
2023-02-11T08:15:25.210Z,101433.98
2023-02-11T08:17:54.047Z,101433.15
2023-02-11T08:20:22.861Z,101432.19
2023-02-11T08:22:51.727Z,101427.84
2023-02-11T08:25:20.812Z,101427.26
2023-02-11T08:27:50.733Z,101433.05
2023-02-11T08:30:19.626Z,101434.53
2023-02-11T08:32:48.040Z,101434.45
2023-02-11T08:35:17.019Z,101437.05
2023-02-11T08:37:45.990Z,101434.37
2023-02-11T08:40:14.731Z,101430.61
2023-02-11T08:42:43.363Z,101432.30
2023-02-11T08:45:13.069Z,101432.48
2023-02-11T08:47:41.612Z,101429.96
2023-02-11T08:50:10.441Z,101432.33
2023-02-11T08:52:39.145Z,101433.39
2023-02-11T08:55:07.935Z,101428.97
2023-02-11T08:57:36.320Z,101424.62
2023-02-11T09:00:05.829Z,101418.64
2023-02-11T09:02:34.971Z,101413.34
2023-02-11T09:05:03.826Z,101410.30
2023-02-11T09:07:33.015Z,101406.27
2023-02-11T09:10:02.239Z,101402.00
2023-02-11T09:12:31.178Z,101396.23
2023-02-11T09:15:00.273Z,101394.89
2023-02-11T09:17:29.665Z,101390.61
2023-02-11T09:19:58.362Z,101384.91
2023-02-11T09:22:26.843Z,101381.83
2023-02-11T09:24:56.657Z,101381.31
2023-02-11T09:27:25.559Z,101374.92
2023-02-11T09:29:54.731Z,101371.47
2023-02-11T09:32:23.228Z,101369.28
2023-02-11T09:34:51.709Z,101367.79
2023-02-11T09:37:20.566Z,101367.77
2023-02-11T09:39:49.185Z,101359.02
2023-02-11T09:42:20.865Z,101358.58
2023-02-11T09:44:49.434Z,101356.56
2023-02-11T09:47:34.613Z,101350.27
2023-02-11T09:50:10.894Z,101343.83
2023-02-11T09:52:43.332Z,101334.15
2023-02-11T09:55:15.383Z,101327.42
2023-02-11T09:57:43.993Z,101325.42
2023-02-11T10:00:23.333Z,101319.80
2023-02-11T10:03:15.280Z,101319.02
2023-02-11T10:05:48.383Z,101312.50
2023-02-11T10:08:37.058Z,101308.24
2023-02-11T10:11:41.907Z,101304.52
2023-02-11T10:14:33.046Z,101297.09
2023-02-11T10:17:22.541Z,101295.59
2023-02-11T10:20:11.154Z,101290.84
2023-02-11T10:23:10.292Z,101290.47
2023-02-11T10:25:40.802Z,101294.04
2023-02-11T10:28:13.945Z,101304.36
2023-02-11T10:31:01.290Z,101293.38
2023-02-11T10:33:48.947Z,101290.05
2023-02-11T10:36:19.041Z,101287.49
2023-02-11T10:38:47.445Z,101284.29
2023-02-11T10:41:25.869Z,101281.94
2023-02-11T10:43:54.251Z,101281.84
2023-02-11T10:46:24.681Z,101285.95
2023-02-11T10:48:54.057Z,101286.23
2023-02-11T10:51:23.611Z,101283.14
2023-02-11T10:54:04.135Z,101277.55
2023-02-11T10:56:35.797Z,101278.05
2023-02-11T10:59:33.500Z,101277.39
2023-02-11T11:02:04.601Z,101272.92
2023-02-11T11:04:41.177Z,101266.77
2023-02-11T11:07:30.264Z,101261.88
2023-02-11T11:10:05.406Z,101252.10
2023-02-11T11:12:41.855Z,101252.27
2023-02-11T11:15:10.629Z,101254.31
2023-02-11T11:17:45.360Z,101250.59
2023-02-11T11:20:23.263Z,101244.19
2023-02-11T11:22:52.933Z,101241.71
2023-02-11T11:25:28.507Z,101240.45
2023-02-11T11:27:59.572Z,101234.73
2023-02-11T11:30:33.890Z,101223.70
2023-02-11T11:33:04.201Z,101217.13
2023-02-11T11:35:33.402Z,101216.00
2023-02-11T11:38:04.078Z,101213.65
2023-02-11T11:40:34.122Z,101217.42
2023-02-11T11:43:15.245Z,101217.36
2023-02-11T11:46:06.406Z,101211.10
2023-02-11T11:48:37.265Z,101209.45
2023-02-11T11:51:06.750Z,101210.13
2023-02-11T11:53:44.178Z,101213.67
2023-02-11T11:56:15.104Z,101215.17
2023-02-11T11:58:43.909Z,101211.08
2023-02-11T12:01:28.670Z,101212.75
2023-02-11T12:04:10.804Z,101208.27
2023-02-11T12:06:51.665Z,101203.70
2023-02-11T12:09:33.773Z,101198.44
2023-02-11T12:12:14.407Z,101195.31
2023-02-11T12:14:53.471Z,101201.81
2023-02-11T12:17:53.966Z,101202.63
2023-02-11T12:20:51.429Z,101197.69
2023-02-11T12:23:46.423Z,101198.23
2023-02-11T12:26:23.236Z,101195.84
2023-02-11T12:29:17.385Z,101201.86
2023-02-11T12:31:59.270Z,101195.90
2023-02-11T12:35:10.700Z,101190.80
2023-02-11T12:38:15.913Z,101185.60
2023-02-11T12:41:42.267Z,101183.83
2023-02-11T12:44:16.596Z,101180.52
2023-02-11T12:46:50.886Z,101179.48
2023-02-11T12:49:23.297Z,101173.39
2023-02-11T12:52:17.864Z,101177.94
2023-02-11T12:54:52.114Z,101172.67
2023-02-11T12:57:23.122Z,101166.55
2023-02-11T12:59:57.654Z,101161.69
2023-02-11T13:02:29.441Z,101158.42
2023-02-11T13:05:02.514Z,101155.16
2023-02-11T13:07:35.977Z,101152.86
2023-02-11T13:10:15.838Z,101153.41
2023-02-11T13:13:04.488Z,101158.44
2023-02-11T13:15:33.477Z,101159.67
2023-02-11T13:18:25.048Z,101153.65
2023-02-11T13:20:59.827Z,101152.11
2023-02-11T13:23:38.973Z,101152.50
2023-02-11T13:26:19.080Z,101152.61
2023-02-11T13:29:18.736Z,101150.35
2023-02-11T13:31:55.849Z,101146.91
2023-02-11T13:34:43.208Z,101149.52
2023-02-11T13:37:29.373Z,101149.21
2023-02-11T13:39:58.848Z,101146.33
2023-02-11T13:42:28.015Z,101143.43
2023-02-11T13:44:57.185Z,101139.05
2023-02-11T13:47:29.592Z,101139.93
2023-02-11T13:49:58.281Z,101131.71
2023-02-11T13:52:37.630Z,101124.03
2023-02-11T13:55:35.908Z,101125.98
2023-02-11T13:58:07.347Z,101116.96
2023-02-11T14:00:39.310Z,101116.05
2023-02-11T14:03:32.509Z,101110.59
2023-02-11T14:06:28.617Z,101103.83
2023-02-11T14:09:08.354Z,101103.19
2023-02-11T14:12:22.539Z,101099.62
2023-02-11T14:15:13.865Z,101099.80
2023-02-11T14:17:47.581Z,101095.57
2023-02-11T14:20:36.719Z,101095.69
2023-02-11T14:23:05.168Z,101095.96
2023-02-11T14:25:34.989Z,101085.14
2023-02-11T14:28:15.897Z,101081.42
2023-02-11T14:30:48.820Z,101086.00
2023-02-11T14:33:24.293Z,101085.53
2023-02-11T14:36:14.680Z,101084.08
2023-02-11T14:39:08.193Z,101081.59
2023-02-11T14:41:40.365Z,101076.83
2023-02-11T14:44:23.328Z,101070.61
2023-02-11T14:46:53.513Z,101069.00
2023-02-11T14:49:37.000Z,101067.91
2023-02-11T14:52:23.700Z,101066.02
2023-02-11T14:54:52.459Z,101070.98
2023-02-11T14:57:21.377Z,101065.31
2023-02-11T14:59:55.959Z,101069.16
2023-02-11T15:02:26.490Z,101062.69
2023-02-11T15:04:55.434Z,101064.86
2023-02-11T15:07:24.522Z,101067.39
2023-02-11T15:09:54.136Z,101065.87
2023-02-11T15:12:26.761Z,101064.29
2023-02-11T15:14:57.181Z,101065.46
2023-02-11T15:17:30.645Z,101067.42
2023-02-11T15:20:01.126Z,101059.24
2023-02-11T15:22:33.201Z,101059.63
2023-02-11T15:25:14.597Z,101059.70
2023-02-11T15:27:46.120Z,101053.27
2023-02-11T15:30:25.836Z,101049.64
2023-02-11T15:33:05.584Z,101052.77
2023-02-11T15:35:41.224Z,101048.96
2023-02-11T15:38:11.235Z,101049.21
2023-02-11T15:40:40.212Z,101046.27
2023-02-11T15:43:10.374Z,101044.85
2023-02-11T15:45:42.686Z,101045.66
2023-02-11T15:48:18.566Z,101044.38
2023-02-11T15:50:55.356Z,101042.63
2023-02-11T15:53:37.660Z,101039.48
2023-02-11T15:56:30.830Z,101039.80
2023-02-11T15:59:01.129Z,101040.10
2023-02-11T16:01:34.242Z,101039.73
2023-02-11T16:04:09.098Z,101039.95
2023-02-11T16:06:40.501Z,101044.32
2023-02-11T16:09:10.510Z,101041.11
2023-02-11T16:11:48.104Z,101038.08
2023-02-11T16:14:39.621Z,101036.14
2023-02-11T16:17:13.749Z,101034.34
2023-02-11T16:19:50.242Z,101032.36
2023-02-11T16:22:27.848Z,101030.44
2023-02-11T16:24:59.667Z,101030.08
2023-02-11T16:27:40.262Z,101026.77
2023-02-11T16:30:32.424Z,101030.33
2023-02-11T16:33:01.479Z,101027.52
2023-02-11T16:35:30.822Z,101022.91
2023-02-11T16:37:59.145Z,101022.96
2023-02-11T16:40:27.925Z,101020.42
2023-02-11T16:42:56.654Z,101019.23
2023-02-11T16:45:25.093Z,101013.93
2023-02-11T16:47:53.801Z,101005.91
2023-02-11T16:50:23.674Z,101002.84
2023-02-11T16:52:52.496Z,101006.02
2023-02-11T16:55:26.804Z,101003.59
2023-02-11T16:57:55.693Z,100994.47
2023-02-11T17:00:24.735Z,100989.12
2023-02-11T17:02:53.649Z,100985.16
2023-02-11T17:05:26.075Z,100984.56
2023-02-11T17:07:55.564Z,100975.27
2023-02-11T17:10:24.968Z,100973.10
2023-02-11T17:12:56.551Z,100972.26
2023-02-11T17:15:25.704Z,100971.44
2023-02-11T17:17:59.206Z,100969.31
2023-02-11T17:20:28.350Z,100963.92
2023-02-11T17:22:57.152Z,100960.98
2023-02-11T17:25:26.388Z,100961.08
2023-02-11T17:27:54.909Z,100956.98
2023-02-11T17:30:23.575Z,100948.73
2023-02-11T17:32:52.250Z,100950.19
2023-02-11T17:35:21.029Z,100944.67
2023-02-11T17:37:49.715Z,100938.83
2023-02-11T17:40:18.711Z,100931.96
2023-02-11T17:42:47.365Z,100929.27
2023-02-11T17:45:16.642Z,100924.31
2023-02-11T17:47:45.515Z,100922.92
2023-02-11T17:50:13.866Z,100919.84
2023-02-11T17:52:43.791Z,100914.27
2023-02-11T17:55:12.574Z,100912.60
2023-02-11T17:57:41.153Z,100903.54
2023-02-11T18:00:13.231Z,100904.83
2023-02-11T18:02:42.211Z,100897.33
2023-02-11T18:05:11.370Z,100890.99
2023-02-11T18:07:40.411Z,100882.77
2023-02-11T18:10:10.042Z,100880.52
2023-02-11T18:12:40.137Z,100878.77
2023-02-11T18:15:09.729Z,100876.83
2023-02-11T18:17:38.219Z,100876.55
2023-02-11T18:20:09.033Z,100868.13
2023-02-11T18:22:40.422Z,100864.96
2023-02-11T18:25:09.609Z,100863.44
2023-02-11T18:27:38.388Z,100859.22
2023-02-11T18:30:07.722Z,100855.90
2023-02-11T18:32:37.913Z,100850.40
2023-02-11T18:35:08.847Z,100851.25
2023-02-11T18:37:41.124Z,100845.78
2023-02-11T18:40:11.219Z,100843.59
2023-02-11T18:42:40.459Z,100837.59
2023-02-11T18:45:11.571Z,100839.75
2023-02-11T18:47:40.078Z,100838.54
2023-02-11T18:50:09.400Z,100835.27
2023-02-11T18:52:38.893Z,100824.60
2023-02-11T18:55:08.184Z,100820.30
2023-02-11T18:57:36.450Z,100825.15
2023-02-11T19:00:06.674Z,100823.40
2023-02-11T19:02:35.469Z,100824.35
2023-02-11T19:05:06.489Z,100816.77
2023-02-11T19:07:34.800Z,100813.81
2023-02-11T19:10:06.231Z,100809.10
2023-02-11T19:12:35.442Z,100810.61
2023-02-11T19:15:07.677Z,100808.20
2023-02-11T19:17:37.229Z,100804.02
2023-02-11T19:20:07.073Z,100806.42
2023-02-11T19:22:35.715Z,100809.78
2023-02-11T19:25:05.001Z,100809.64
2023-02-11T19:27:34.608Z,100809.41
2023-02-11T19:30:03.947Z,100811.05
2023-02-11T19:32:33.120Z,100805.03
2023-02-11T19:35:02.046Z,100801.76
2023-02-11T19:37:31.352Z,100805.69
2023-02-11T19:39:59.991Z,100809.96
2023-02-11T19:42:29.036Z,100810.65
2023-02-11T19:44:57.891Z,100801.70
2023-02-11T19:47:28.331Z,100790.10
2023-02-11T19:49:59.760Z,100782.65
2023-02-11T19:52:28.531Z,100784.85
2023-02-11T19:54:57.321Z,100788.09
2023-02-11T19:57:26.375Z,100785.66
2023-02-11T19:59:57.503Z,100782.39
2023-02-11T20:02:26.296Z,100784.50
2023-02-11T20:04:54.857Z,100786.28
2023-02-11T20:07:25.843Z,100782.23
2023-02-11T20:09:54.660Z,100779.33
2023-02-11T20:12:23.347Z,100773.75
2023-02-11T20:14:52.644Z,100771.09
2023-02-11T20:17:21.343Z,100767.78
2023-02-11T20:19:53.315Z,100766.25
2023-02-11T20:22:22.510Z,100760.09
2023-02-11T20:24:50.971Z,100759.14
2023-02-11T20:27:20.210Z,100757.26
2023-02-11T20:29:48.957Z,100750.10
2023-02-11T20:32:17.570Z,100745.83
2023-02-11T20:34:46.432Z,100746.39
2023-02-11T20:37:15.230Z,100741.05
2023-02-11T20:39:45.341Z,100737.35
2023-02-11T20:42:15.357Z,100732.88
2023-02-11T20:44:44.534Z,100733.49
2023-02-11T20:47:13.461Z,100730.05
2023-02-11T20:49:42.115Z,100721.66
2023-02-11T20:52:10.631Z,100716.02
2023-02-11T20:54:39.015Z,100715.61
2023-02-11T20:57:08.812Z,100710.25
2023-02-11T20:59:38.105Z,100706.91
2023-02-11T21:02:08.716Z,100705.34
2023-02-11T21:04:39.267Z,100702.58
2023-02-11T21:07:07.849Z,100701.50
2023-02-11T21:09:38.207Z,100696.23
2023-02-11T21:12:09.114Z,100688.87
2023-02-11T21:14:38.107Z,100681.23
2023-02-11T21:17:07.013Z,100678.31
2023-02-11T21:19:38.054Z,100676.52
2023-02-11T21:22:06.638Z,100670.15
2023-02-11T21:24:35.022Z,100672.15
2023-02-11T21:27:06.486Z,100672.46
2023-02-11T21:29:40.407Z,100668.37
2023-02-11T21:32:17.860Z,100663.79
2023-02-11T21:34:46.464Z,100657.57
2023-02-11T21:37:15.087Z,100657.77
2023-02-11T21:39:43.712Z,100655.27
2023-02-11T21:42:12.296Z,100648.84
2023-02-11T21:44:40.747Z,100647.14
2023-02-11T21:47:09.157Z,100643.10
2023-02-11T21:49:37.537Z,100634.83
2023-02-11T21:52:06.121Z,100633.17
2023-02-11T21:54:35.233Z,100629.42
2023-02-11T21:57:04.045Z,100630.66
2023-02-11T21:59:34.196Z,100627.27
2023-02-11T22:02:03.191Z,100622.70
2023-02-11T22:04:33.501Z,100622.66
2023-02-11T22:07:03.365Z,100617.01
2023-02-11T22:09:38.852Z,100610.69
2023-02-11T22:12:08.931Z,100606.39
2023-02-11T22:14:37.803Z,100601.98
2023-02-11T22:17:06.380Z,100598.20
2023-02-11T22:19:35.302Z,100592.38
2023-02-11T22:22:04.938Z,100589.95
2023-02-11T22:24:36.214Z,100581.59
2023-02-11T22:27:05.033Z,100575.60
2023-02-11T22:29:33.603Z,100567.27
2023-02-11T22:32:02.448Z,100561.25
2023-02-11T22:34:31.698Z,100562.52
2023-02-11T22:37:02.544Z,100559.41
2023-02-11T22:39:31.603Z,100560.73
2023-02-11T22:42:00.138Z,100560.23
2023-02-11T22:44:28.625Z,100552.92
2023-02-11T22:46:57.210Z,100552.45
2023-02-11T22:49:25.697Z,100551.08
2023-02-11T22:51:54.439Z,100545.06
2023-02-11T22:54:23.117Z,100543.66
2023-02-11T22:56:51.905Z,100541.52
2023-02-11T22:59:20.508Z,100539.98
2023-02-11T23:01:49.131Z,100538.91
2023-02-11T23:04:19.402Z,100534.48
2023-02-11T23:06:48.086Z,100534.32
2023-02-11T23:09:16.880Z,100528.77
2023-02-11T23:11:45.195Z,100524.17
2023-02-11T23:14:14.557Z,100523.00
2023-02-11T23:16:43.195Z,100519.15
2023-02-11T23:19:12.643Z,100516.57
2023-02-11T23:21:41.441Z,100513.30
2023-02-11T23:24:12.895Z,100506.27
2023-02-11T23:26:41.783Z,100499.86
2023-02-11T23:29:10.565Z,100488.77
2023-02-11T23:31:40.490Z,100483.41
2023-02-11T23:34:09.473Z,100470.31
2023-02-11T23:36:38.211Z,100469.59
2023-02-11T23:39:09.208Z,100462.95
2023-02-11T23:41:38.089Z,100458.83
2023-02-11T23:44:06.573Z,100449.48
2023-02-11T23:46:35.156Z,100447.15
2023-02-11T23:49:03.743Z,100441.90
2023-02-11T23:51:32.122Z,100436.82
2023-02-11T23:54:00.601Z,100432.45
2023-02-11T23:56:29.222Z,100425.05
2023-02-11T23:58:58.565Z,100413.70
